createdAt,value
2023-05-15T00:00:14.826Z,76479.69
2023-05-15T00:01:51.185Z,76481.66
2023-05-15T00:03:26.670Z,76505.38
2023-05-15T00:05:00.734Z,76501.44
2023-05-15T00:06:34.715Z,76489.56
2023-05-15T00:08:08.285Z,76485.63
2023-05-15T00:09:42.031Z,76493.53
2023-05-15T00:11:15.285Z,76493.53
2023-05-15T00:12:48.876Z,76489.56
2023-05-15T00:14:22.524Z,76495.50
2023-05-15T00:15:56.147Z,76501.44
2023-05-15T00:17:29.722Z,76497.47
2023-05-15T00:19:03.389Z,76501.44
2023-05-15T00:20:37.158Z,76499.47
2023-05-15T00:22:10.608Z,76499.47
2023-05-15T00:23:44.073Z,76501.44
2023-05-15T00:25:19.913Z,76537.03
2023-05-15T00:26:54.239Z,76503.41
2023-05-15T00:28:27.885Z,76501.44
2023-05-15T00:30:03.223Z,76501.44
2023-05-15T00:31:36.852Z,76497.47
2023-05-15T00:33:10.526Z,76491.53
2023-05-15T00:34:44.630Z,76487.59
2023-05-15T00:36:18.375Z,76485.63
2023-05-15T00:37:52.363Z,76489.56
2023-05-15T00:39:26.297Z,76487.59
2023-05-15T00:41:03.119Z,76475.72
2023-05-15T00:42:36.944Z,76473.75
2023-05-15T00:44:12.078Z,76469.78
2023-05-15T00:45:47.124Z,76450.03
2023-05-15T00:47:22.209Z,76450.03
2023-05-15T00:48:58.116Z,76444.09
2023-05-15T00:50:33.850Z,76442.13
2023-05-15T00:52:09.212Z,76434.19
2023-05-15T00:53:44.860Z,76428.28
2023-05-15T00:55:18.719Z,76396.63
2023-05-15T00:56:53.256Z,76351.16
2023-05-15T00:58:29.390Z,76301.72
2023-05-15T01:00:13.374Z,76266.13
2023-05-15T01:01:46.824Z,76240.44
2023-05-15T01:03:20.961Z,76208.78
2023-05-15T01:04:54.866Z,76228.56
2023-05-15T01:06:30.652Z,76218.69
2023-05-15T01:08:24.429Z,76216.72
2023-05-15T01:09:59.431Z,76187.03
2023-05-15T01:11:36.779Z,76155.41
2023-05-15T01:13:12.356Z,76131.69
2023-05-15T01:14:46.408Z,76133.66
2023-05-15T01:16:22.942Z,76090.16
2023-05-15T01:17:56.594Z,76040.75
2023-05-15T01:19:31.308Z,76030.84
2023-05-15T01:21:10.697Z,75991.31
2023-05-15T01:23:10.281Z,75935.94
2023-05-15T01:25:06.852Z,75898.38
2023-05-15T01:27:07.808Z,75858.84
2023-05-15T01:28:49.163Z,75837.09
2023-05-15T01:30:31.641Z,75793.59
2023-05-15T01:32:19.144Z,75765.94
2023-05-15T01:33:59.845Z,75773.84
2023-05-15T01:36:12.412Z,75773.84
2023-05-15T01:37:50.509Z,75744.19
2023-05-15T01:39:27.776Z,75714.53
2023-05-15T01:41:30.223Z,75671.03
2023-05-15T01:43:10.370Z,75657.19
2023-05-15T01:44:54.261Z,75611.72
2023-05-15T01:46:31.441Z,75584.06
2023-05-15T01:48:09.457Z,75578.13
2023-05-15T01:49:46.089Z,75580.09
2023-05-15T01:51:21.857Z,75540.56
2023-05-15T01:52:59.095Z,75516.84
2023-05-15T01:54:34.394Z,75495.09
2023-05-15T01:56:09.886Z,75473.34
2023-05-15T01:57:45.938Z,75514.84
2023-05-15T01:59:21.818Z,75451.59
2023-05-15T02:00:56.691Z,75431.84
2023-05-15T02:02:31.395Z,75394.28
2023-05-15T02:04:05.458Z,75364.63
2023-05-15T02:05:39.603Z,75342.88
2023-05-15T02:07:14.625Z,75323.09
2023-05-15T02:08:49.524Z,75346.81
2023-05-15T02:10:23.692Z,75368.56
2023-05-15T02:12:05.848Z,75439.75
2023-05-15T02:13:40.925Z,75427.88
2023-05-15T02:15:16.135Z,75469.38
2023-05-15T02:16:49.406Z,75469.38
2023-05-15T02:18:23.811Z,75419.97
2023-05-15T02:19:57.281Z,75303.34
2023-05-15T02:21:31.147Z,75275.66
2023-05-15T02:23:04.968Z,75224.28
2023-05-15T02:24:38.901Z,75170.91
2023-05-15T02:26:31.348Z,75153.09
2023-05-15T02:28:07.471Z,75230.19
2023-05-15T02:30:08.387Z,75228.22
2023-05-15T02:31:53.308Z,75182.75
2023-05-15T02:34:04.553Z,75149.16
2023-05-15T02:35:47.228Z,75161.00
2023-05-15T02:37:28.774Z,75178.81
2023-05-15T02:39:12.194Z,75145.19
2023-05-15T02:40:49.048Z,75157.06
2023-05-15T02:42:23.319Z,75097.75
2023-05-15T02:43:57.588Z,75123.47
2023-05-15T02:45:32.044Z,75085.91
2023-05-15T02:47:06.799Z,75036.47
2023-05-15T02:48:42.957Z,75014.75
2023-05-15T02:50:16.673Z,74971.25
2023-05-15T02:51:50.759Z,74896.16
2023-05-15T02:53:24.130Z,75000.91
2023-05-15T02:54:57.626Z,74983.13
2023-05-15T02:56:31.366Z,74872.44
2023-05-15T02:58:05.366Z,74832.91
2023-05-15T02:59:38.948Z,74900.09
2023-05-15T03:01:12.973Z,74765.69
2023-05-15T03:02:46.357Z,74848.72
2023-05-15T03:04:21.582Z,74726.16
2023-05-15T03:05:55.385Z,74740.00
2023-05-15T03:07:28.968Z,74803.25
2023-05-15T03:09:02.908Z,74819.06
2023-05-15T03:10:36.352Z,74734.06
2023-05-15T03:12:11.535Z,74743.97
2023-05-15T03:13:44.951Z,74647.09
2023-05-15T03:15:18.613Z,74597.69
2023-05-15T03:16:51.922Z,74633.28
2023-05-15T03:18:25.494Z,74726.16
2023-05-15T03:19:58.514Z,74789.41
2023-05-15T03:21:32.191Z,74939.63
2023-05-15T03:23:05.886Z,74900.09
2023-05-15T03:24:39.493Z,74773.59
2023-05-15T03:26:12.831Z,74785.47
2023-05-15T03:27:46.656Z,74868.47
2023-05-15T03:29:20.927Z,74781.50
2023-05-15T03:30:54.815Z,74789.41
2023-05-15T03:32:28.111Z,74769.66
2023-05-15T03:34:01.514Z,74686.63
2023-05-15T03:35:35.986Z,74560.16
2023-05-15T03:37:09.451Z,74688.63
2023-05-15T03:38:44.359Z,74615.47
2023-05-15T03:40:18.071Z,74658.97
2023-05-15T03:41:52.477Z,74550.25
2023-05-15T03:43:28.812Z,74619.44
2023-05-15T03:45:02.184Z,74558.16
2023-05-15T03:46:35.727Z,74425.75
2023-05-15T03:48:09.327Z,74374.38
2023-05-15T03:49:43.204Z,74427.72
2023-05-15T03:51:16.798Z,74512.72
2023-05-15T03:52:50.652Z,74627.34
2023-05-15T03:54:25.029Z,74508.75
2023-05-15T03:56:00.060Z,74413.91
2023-05-15T03:57:33.746Z,74376.34
2023-05-15T03:59:07.939Z,74271.59
2023-05-15T04:00:41.827Z,74232.06
2023-05-15T04:02:15.594Z,74243.94
2023-05-15T04:03:49.670Z,74239.97
2023-05-15T04:05:23.267Z,74158.97
2023-05-15T04:06:56.872Z,74216.28
2023-05-15T04:08:30.808Z,74196.50
2023-05-15T04:10:04.875Z,74121.41
2023-05-15T04:11:38.966Z,74081.88
2023-05-15T04:13:12.785Z,74075.97
2023-05-15T04:14:46.509Z,74117.47
2023-05-15T04:16:20.239Z,74236.03
2023-05-15T04:17:54.948Z,74198.47
2023-05-15T04:19:28.452Z,74125.38
2023-05-15T04:21:02.121Z,74113.50
2023-05-15T04:22:35.698Z,74273.59
2023-05-15T04:24:09.303Z,74427.72
2023-05-15T04:25:47.184Z,74409.94
2023-05-15T04:27:20.695Z,74289.38
2023-05-15T04:29:03.353Z,74445.50
2023-05-15T04:30:37.924Z,74516.66
2023-05-15T04:32:13.192Z,74487.03
2023-05-15T04:33:46.859Z,74449.47
2023-05-15T04:35:20.562Z,74251.84
2023-05-15T04:36:53.997Z,74224.19
2023-05-15T04:38:27.788Z,74129.31
2023-05-15T04:40:01.707Z,74208.38
2023-05-15T04:41:37.155Z,74322.97
2023-05-15T04:43:10.495Z,74392.16
2023-05-15T04:44:45.058Z,74413.91
2023-05-15T04:46:18.528Z,74271.59
2023-05-15T04:47:52.147Z,74196.50
2023-05-15T04:49:25.603Z,74153.03
2023-05-15T04:50:59.176Z,74321.00
2023-05-15T04:52:33.380Z,74214.28
2023-05-15T04:54:07.600Z,74155.00
2023-05-15T04:55:41.115Z,74113.50
2023-05-15T04:57:14.899Z,74200.47
2023-05-15T04:58:48.413Z,74121.41
2023-05-15T05:00:25.226Z,74156.97
2023-05-15T05:01:59.605Z,74180.69
2023-05-15T05:03:33.194Z,74196.50
2023-05-15T05:05:07.951Z,74103.63
2023-05-15T05:06:41.539Z,74279.50
2023-05-15T05:08:15.090Z,74287.41
2023-05-15T05:09:48.604Z,74123.38
2023-05-15T05:11:22.511Z,74046.31
2023-05-15T05:12:56.180Z,74226.16
2023-05-15T05:14:29.767Z,74188.59
2023-05-15T05:16:03.191Z,74344.72
2023-05-15T05:17:37.036Z,74271.59
2023-05-15T05:19:10.464Z,74279.50
2023-05-15T05:20:46.947Z,74208.38
2023-05-15T05:22:20.843Z,74232.06
2023-05-15T05:23:54.181Z,74322.97
2023-05-15T05:25:27.955Z,74334.84
2023-05-15T05:27:05.934Z,74309.16
2023-05-15T05:28:39.442Z,74311.13
2023-05-15T05:30:13.156Z,74322.97
2023-05-15T05:31:47.793Z,74303.22
2023-05-15T05:33:21.179Z,74164.88
2023-05-15T05:34:54.815Z,74097.69
2023-05-15T05:36:28.038Z,74141.16
2023-05-15T05:38:01.346Z,74174.78
2023-05-15T05:39:35.126Z,74184.66
2023-05-15T05:41:13.834Z,74113.50
2023-05-15T05:42:47.614Z,74188.59
2023-05-15T05:44:20.880Z,74075.97
2023-05-15T05:45:54.348Z,74212.31
2023-05-15T05:47:27.807Z,74222.19
2023-05-15T05:49:01.382Z,74311.13
2023-05-15T05:50:34.891Z,74133.28
2023-05-15T05:52:08.991Z,74042.38
2023-05-15T05:53:43.713Z,74070.03
2023-05-15T05:55:20.208Z,74091.78
2023-05-15T05:56:54.073Z,74131.28
2023-05-15T05:58:27.271Z,74263.69
2023-05-15T06:00:01.168Z,74239.97
2023-05-15T06:01:34.960Z,74336.81
2023-05-15T06:03:08.180Z,74212.31
2023-05-15T06:04:42.028Z,74234.06
2023-05-15T06:06:15.304Z,74334.84
2023-05-15T06:07:48.572Z,74212.31
2023-05-15T06:09:21.811Z,74338.78
2023-05-15T06:10:55.343Z,74273.59
2023-05-15T06:12:28.365Z,74137.22
2023-05-15T06:14:01.862Z,74127.34
2023-05-15T06:15:35.603Z,74048.28
2023-05-15T06:17:08.794Z,73989.00
2023-05-15T06:18:42.334Z,73906.00
2023-05-15T06:20:16.334Z,74000.88
2023-05-15T06:21:49.745Z,74020.63
2023-05-15T06:23:24.348Z,74180.69
2023-05-15T06:24:57.675Z,74202.44
2023-05-15T06:26:31.241Z,74168.84
2023-05-15T06:28:04.429Z,74214.28
2023-05-15T06:29:37.846Z,74153.03
2023-05-15T06:31:11.148Z,74204.41
2023-05-15T06:32:44.364Z,74204.41
2023-05-15T06:34:17.698Z,74319.03
2023-05-15T06:35:51.343Z,74344.72
2023-05-15T06:37:24.824Z,74332.88
2023-05-15T06:38:58.379Z,74307.19
2023-05-15T06:40:31.867Z,74238.00
2023-05-15T06:42:06.098Z,74279.50
2023-05-15T06:43:41.333Z,74297.28
2023-05-15T06:45:14.788Z,74259.75
2023-05-15T06:46:48.349Z,74291.38
2023-05-15T06:48:21.771Z,74271.59
2023-05-15T06:49:55.959Z,74309.16
2023-05-15T06:51:29.333Z,74247.88
2023-05-15T06:53:02.653Z,74232.06
2023-05-15T06:54:36.066Z,74182.69
2023-05-15T06:56:09.439Z,74216.28
2023-05-15T06:57:43.098Z,74370.41
2023-05-15T06:59:16.478Z,74263.69
2023-05-15T07:00:49.724Z,74247.88
2023-05-15T07:02:23.111Z,74226.16
2023-05-15T07:03:56.374Z,74249.88
2023-05-15T07:05:32.059Z,74350.66
2023-05-15T07:07:05.578Z,74431.69
2023-05-15T07:08:38.733Z,74344.72
2023-05-15T07:10:12.112Z,74354.59
2023-05-15T07:11:45.882Z,74457.38
2023-05-15T07:13:21.015Z,74409.94
2023-05-15T07:14:54.564Z,74492.94
2023-05-15T07:16:28.392Z,74465.28
2023-05-15T07:18:02.076Z,74534.44
2023-05-15T07:19:35.967Z,74512.72
2023-05-15T07:21:09.626Z,74487.03
2023-05-15T07:22:55.093Z,74560.16
2023-05-15T07:24:29.850Z,74528.53
2023-05-15T07:26:04.463Z,74526.53
2023-05-15T07:27:38.627Z,74441.56
2023-05-15T07:29:12.837Z,74526.53
2023-05-15T07:30:46.390Z,74496.91
2023-05-15T07:32:20.402Z,74556.19
2023-05-15T07:33:53.580Z,74441.56
2023-05-15T07:35:27.544Z,74463.31
2023-05-15T07:37:01.196Z,74435.63
2023-05-15T07:38:34.836Z,74512.72
2023-05-15T07:40:08.875Z,74585.84
2023-05-15T07:41:42.312Z,74558.16
2023-05-15T07:43:15.573Z,74657.00
2023-05-15T07:44:52.117Z,74597.69
2023-05-15T07:46:26.480Z,74540.38
2023-05-15T07:48:00.169Z,74542.34
2023-05-15T07:49:33.410Z,74463.31
2023-05-15T07:51:07.072Z,74404.00
2023-05-15T07:52:42.765Z,74406.00
2023-05-15T07:54:16.409Z,74394.13
2023-05-15T07:55:49.718Z,74372.41
2023-05-15T07:57:23.580Z,74390.19
2023-05-15T07:58:57.816Z,74417.84
2023-05-15T08:00:32.189Z,74429.72
2023-05-15T08:02:07.180Z,74528.53
2023-05-15T08:03:40.240Z,74572.00
2023-05-15T08:05:13.419Z,74485.03
2023-05-15T08:06:46.377Z,74595.72
2023-05-15T08:08:19.167Z,74690.59
2023-05-15T08:09:52.229Z,74696.53
2023-05-15T08:11:25.846Z,74726.16
2023-05-15T08:12:59.738Z,74647.09
2023-05-15T08:14:33.635Z,74568.06
2023-05-15T08:16:07.330Z,74611.53
2023-05-15T08:17:41.295Z,74568.06
2023-05-15T08:19:18.288Z,74558.16
2023-05-15T08:20:52.672Z,74573.97
2023-05-15T08:22:25.903Z,74481.09
2023-05-15T08:24:00.737Z,74487.03
2023-05-15T08:25:33.924Z,74599.69
2023-05-15T08:27:08.742Z,74560.16
2023-05-15T08:28:41.870Z,74506.78
2023-05-15T08:30:14.855Z,74550.25
2023-05-15T08:31:48.444Z,74575.97
2023-05-15T08:33:21.629Z,74643.16
2023-05-15T08:34:54.861Z,74639.19
2023-05-15T08:36:28.496Z,74558.16
2023-05-15T08:38:02.299Z,74508.75
2023-05-15T08:39:35.673Z,74492.94
2023-05-15T08:41:23.549Z,74443.53
2023-05-15T08:43:15.379Z,74362.50
2023-05-15T08:44:49.137Z,74324.97
2023-05-15T08:46:24.050Z,74398.09
2023-05-15T08:48:01.191Z,74362.50
2023-05-15T08:49:42.149Z,74376.34
2023-05-15T08:51:16.921Z,74413.91
2023-05-15T08:52:52.012Z,74340.78
2023-05-15T08:54:26.392Z,74307.19
2023-05-15T08:56:00.034Z,74324.97
2023-05-15T08:57:34.355Z,74344.72
2023-05-15T08:59:10.018Z,74409.94
2023-05-15T09:00:50.441Z,74435.63
2023-05-15T09:02:26.202Z,74455.41
2023-05-15T09:03:59.554Z,74439.59
2023-05-15T09:05:33.394Z,74427.72
2023-05-15T09:07:07.333Z,74544.34
2023-05-15T09:08:42.173Z,74540.38
2023-05-15T09:10:16.749Z,74611.53
2023-05-15T09:11:51.529Z,74583.88
2023-05-15T09:13:25.244Z,74477.13
2023-05-15T09:15:22.694Z,74494.94
2023-05-15T09:16:56.202Z,74473.19
2023-05-15T09:18:30.916Z,74473.19
2023-05-15T09:20:08.760Z,74479.13
2023-05-15T09:21:42.577Z,74512.72
2023-05-15T09:23:42.068Z,74502.84
2023-05-15T09:25:43.159Z,74544.34
2023-05-15T09:27:17.350Z,74490.97
2023-05-15T09:29:03.437Z,74453.41
2023-05-15T09:30:42.078Z,74496.91
2023-05-15T09:32:16.078Z,74441.56
2023-05-15T09:34:01.897Z,74500.84
2023-05-15T09:35:37.947Z,74455.41
2023-05-15T09:37:30.382Z,74435.63
2023-05-15T09:39:03.727Z,74437.63
2023-05-15T09:40:37.230Z,74465.28
2023-05-15T09:42:12.820Z,74402.03
2023-05-15T09:43:46.778Z,74394.13
2023-05-15T09:45:21.557Z,74390.19
2023-05-15T09:46:54.915Z,74413.91
2023-05-15T09:48:29.619Z,74386.22
2023-05-15T09:50:03.551Z,74338.78
2023-05-15T09:51:38.804Z,74289.38
2023-05-15T09:53:14.226Z,74263.69
2023-05-15T09:54:50.132Z,74212.31
2023-05-15T09:56:25.110Z,74255.78
2023-05-15T09:58:12.490Z,74319.03
2023-05-15T09:59:50.173Z,74267.66
2023-05-15T10:01:24.488Z,74271.59
2023-05-15T10:03:08.778Z,74230.09
2023-05-15T10:04:42.558Z,74263.69
2023-05-15T10:06:20.275Z,74212.31
2023-05-15T10:07:57.603Z,74168.84
2023-05-15T10:09:34.073Z,74192.56
2023-05-15T10:11:07.971Z,74297.28
2023-05-15T10:12:41.294Z,74283.47
2023-05-15T10:14:15.329Z,74277.53
2023-05-15T10:15:50.327Z,74317.06
2023-05-15T10:17:23.982Z,74279.50
2023-05-15T10:18:58.897Z,74243.94
2023-05-15T10:20:33.631Z,74348.69
2023-05-15T10:22:09.417Z,74342.75
2023-05-15T10:23:44.158Z,74350.66
2023-05-15T10:25:24.650Z,74350.66
2023-05-15T10:26:59.176Z,74374.38
2023-05-15T10:28:33.819Z,74382.28
2023-05-15T10:30:10.211Z,74409.94
2023-05-15T10:31:43.567Z,74396.09
2023-05-15T10:33:16.987Z,74532.47
2023-05-15T10:34:51.677Z,74552.25
2023-05-15T10:36:26.047Z,74536.44
2023-05-15T10:37:59.759Z,74465.28
2023-05-15T10:39:36.202Z,74504.81
2023-05-15T10:41:17.720Z,74508.75
2023-05-15T10:42:51.771Z,74542.34
2023-05-15T10:44:24.892Z,74581.88
2023-05-15T10:45:58.705Z,74572.00
2023-05-15T10:47:33.756Z,74583.88
2023-05-15T10:49:07.415Z,74615.47
2023-05-15T10:50:41.514Z,74615.47
2023-05-15T10:52:16.713Z,74625.38
2023-05-15T10:53:52.893Z,74575.97
2023-05-15T10:55:26.042Z,74512.72
2023-05-15T10:56:59.033Z,74546.31
2023-05-15T10:58:33.347Z,74518.66
2023-05-15T11:00:29.627Z,74455.41
2023-05-15T11:02:23.517Z,74433.66
2023-05-15T11:04:09.807Z,74500.84
2023-05-15T11:06:11.575Z,74540.38
2023-05-15T11:07:44.764Z,74546.31
2023-05-15T11:09:29.829Z,74526.53
2023-05-15T11:11:02.827Z,74508.75
2023-05-15T11:12:57.268Z,74534.44
2023-05-15T11:14:56.080Z,74554.22
2023-05-15T11:16:54.340Z,74595.72
2023-05-15T11:18:27.883Z,74635.25
2023-05-15T11:20:01.748Z,74666.88
2023-05-15T11:21:46.742Z,74706.41
2023-05-15T11:23:23.965Z,74722.22
2023-05-15T11:25:14.621Z,74734.06
2023-05-15T11:26:59.252Z,74747.91
2023-05-15T11:28:42.975Z,74751.84
2023-05-15T11:30:23.019Z,74763.72
2023-05-15T11:31:56.528Z,74763.72
2023-05-15T11:33:31.844Z,74789.41
2023-05-15T11:35:05.677Z,74809.19
2023-05-15T11:36:41.703Z,74799.28
2023-05-15T11:38:25.250Z,74785.47
2023-05-15T11:39:59.050Z,74777.56
2023-05-15T11:41:32.650Z,74817.09
2023-05-15T11:43:08.935Z,74821.03
2023-05-15T11:44:42.148Z,74785.47
2023-05-15T11:46:16.018Z,74785.47
2023-05-15T11:47:50.486Z,74789.41
2023-05-15T11:49:25.606Z,74795.34
2023-05-15T11:50:59.539Z,74801.28
2023-05-15T11:52:33.318Z,74797.31
2023-05-15T11:54:08.064Z,74732.09
2023-05-15T11:55:44.008Z,74704.44
2023-05-15T11:57:17.141Z,74664.91
2023-05-15T11:58:57.231Z,74639.19
2023-05-15T12:00:31.502Z,74623.38
2023-05-15T12:02:06.749Z,74599.69
2023-05-15T12:03:40.604Z,74558.16
2023-05-15T12:05:14.386Z,74619.44
2023-05-15T12:06:49.862Z,74625.38
2023-05-15T12:08:23.461Z,74587.81
2023-05-15T12:09:56.751Z,74587.81
2023-05-15T12:11:30.006Z,74573.97
2023-05-15T12:13:03.615Z,74581.88
2023-05-15T12:14:36.956Z,74583.88
2023-05-15T12:16:10.193Z,74597.69
2023-05-15T12:17:44.829Z,74603.63
2023-05-15T12:19:17.967Z,74635.25
2023-05-15T12:20:53.514Z,74672.81
2023-05-15T12:22:26.486Z,74666.88
2023-05-15T12:24:07.782Z,74655.00
2023-05-15T12:25:42.596Z,74686.63
2023-05-15T12:27:16.532Z,74718.25
2023-05-15T12:28:51.203Z,74708.38
2023-05-15T12:30:25.011Z,74741.97
2023-05-15T12:31:58.519Z,74745.94
2023-05-15T12:33:31.868Z,74716.28
2023-05-15T12:35:05.505Z,74702.44
2023-05-15T12:36:43.184Z,74734.06
2023-05-15T12:38:19.790Z,74747.91
2023-05-15T12:40:01.331Z,74696.53
2023-05-15T12:41:39.300Z,74726.16
2023-05-15T12:43:13.525Z,74771.63
2023-05-15T12:44:46.625Z,74765.69
2023-05-15T12:46:24.109Z,74823.00
2023-05-15T12:47:59.220Z,74817.09
2023-05-15T12:49:36.965Z,74817.09
2023-05-15T12:51:10.161Z,74789.41
2023-05-15T12:52:59.813Z,74805.22
2023-05-15T12:54:41.582Z,74801.28
2023-05-15T12:56:17.879Z,74817.09
2023-05-15T12:57:51.696Z,74801.28
2023-05-15T12:59:25.130Z,74773.59
2023-05-15T13:00:59.033Z,74755.81
2023-05-15T13:02:32.414Z,74755.81
2023-05-15T13:04:06.212Z,74749.88
2023-05-15T13:05:42.854Z,74722.22
2023-05-15T13:07:19.272Z,74714.31
2023-05-15T13:08:54.536Z,74771.63
2023-05-15T13:10:28.081Z,74743.97
2023-05-15T13:12:04.766Z,74740.00
2023-05-15T13:13:46.508Z,74734.06
2023-05-15T13:15:37.186Z,74730.13
2023-05-15T13:17:10.873Z,74718.25
2023-05-15T13:18:43.991Z,74734.06
2023-05-15T13:20:17.259Z,74745.94
2023-05-15T13:21:51.385Z,74747.91
2023-05-15T13:23:25.198Z,74777.56
2023-05-15T13:24:59.300Z,74767.66
2023-05-15T13:26:32.977Z,74741.97
2023-05-15T13:28:08.108Z,74741.97
2023-05-15T13:29:41.460Z,74753.84
2023-05-15T13:31:15.037Z,74741.97
2023-05-15T13:32:49.047Z,74738.03
2023-05-15T13:34:22.463Z,74722.22
2023-05-15T13:35:57.768Z,74734.06
2023-05-15T13:37:31.377Z,74743.97
2023-05-15T13:39:05.024Z,74745.94
2023-05-15T13:40:38.499Z,74736.06
2023-05-15T13:42:12.196Z,74722.22
2023-05-15T13:43:48.165Z,74722.22
2023-05-15T13:45:21.663Z,74738.03
2023-05-15T13:46:54.969Z,74738.03
2023-05-15T13:48:28.621Z,74745.94
2023-05-15T13:50:03.994Z,74745.94
2023-05-15T13:51:37.994Z,74730.13
2023-05-15T13:53:17.109Z,74763.72
2023-05-15T13:54:51.073Z,74740.00
2023-05-15T13:56:24.690Z,74732.09
2023-05-15T13:57:58.457Z,74743.97
2023-05-15T13:59:31.990Z,74732.09
2023-05-15T14:01:09.985Z,74710.34
2023-05-15T14:02:44.240Z,74745.94
2023-05-15T14:04:18.200Z,74734.06
2023-05-15T14:05:52.253Z,74734.06
2023-05-15T14:07:25.963Z,74765.69
2023-05-15T14:08:59.295Z,74771.63
2023-05-15T14:10:32.487Z,74769.66
2023-05-15T14:12:05.532Z,74789.41
2023-05-15T14:13:38.804Z,74805.22
2023-05-15T14:15:12.727Z,74803.25
2023-05-15T14:16:48.944Z,74793.38
2023-05-15T14:18:22.668Z,74815.09
2023-05-15T14:19:56.533Z,74834.88
2023-05-15T14:21:29.913Z,74821.03
2023-05-15T14:23:03.285Z,74823.00
2023-05-15T14:24:36.724Z,74821.03
2023-05-15T14:26:10.647Z,74825.00
2023-05-15T14:27:44.160Z,74825.00
2023-05-15T14:29:18.275Z,74846.72
2023-05-15T14:30:52.081Z,74848.72
2023-05-15T14:32:26.008Z,74856.63
2023-05-15T14:33:59.635Z,74860.56
2023-05-15T14:35:33.473Z,74866.50
2023-05-15T14:37:07.006Z,74858.59
2023-05-15T14:38:40.680Z,74864.53
2023-05-15T14:40:14.373Z,74862.53
2023-05-15T14:41:48.560Z,74874.41
2023-05-15T14:43:21.963Z,74886.25
2023-05-15T14:44:55.944Z,74896.16
2023-05-15T14:46:29.450Z,74941.59
2023-05-15T14:48:02.704Z,74915.91
2023-05-15T14:49:37.100Z,74913.94
2023-05-15T14:51:12.124Z,74913.94
2023-05-15T14:52:45.530Z,74919.88
2023-05-15T14:54:18.830Z,74925.78
2023-05-15T14:55:52.181Z,74935.69
2023-05-15T14:57:26.526Z,74935.69
2023-05-15T14:59:00.131Z,74947.53
2023-05-15T15:00:33.507Z,74949.50
2023-05-15T15:02:07.541Z,74947.53
2023-05-15T15:03:42.951Z,74951.50
2023-05-15T15:05:16.537Z,74959.41
2023-05-15T15:06:50.165Z,74983.13
2023-05-15T15:08:23.841Z,75000.91
2023-05-15T15:09:57.418Z,74977.19
2023-05-15T15:11:30.732Z,74983.13
2023-05-15T15:13:05.537Z,74991.03
2023-05-15T15:14:39.034Z,74998.94
2023-05-15T15:16:12.299Z,75006.84
2023-05-15T15:17:45.729Z,75002.88
2023-05-15T15:19:20.285Z,75012.75
2023-05-15T15:20:53.942Z,75010.78
2023-05-15T15:22:29.570Z,75026.59
2023-05-15T15:24:03.289Z,75026.59
2023-05-15T15:25:36.705Z,75036.47
2023-05-15T15:27:09.834Z,75032.53
2023-05-15T15:28:43.414Z,75038.47
2023-05-15T15:30:17.740Z,75034.50
2023-05-15T15:31:51.422Z,75054.28
2023-05-15T15:33:24.869Z,75054.28
2023-05-15T15:34:58.880Z,75068.09
2023-05-15T15:36:32.253Z,75064.16
2023-05-15T15:38:05.813Z,75072.06
2023-05-15T15:39:39.353Z,75074.03
2023-05-15T15:41:13.074Z,75079.97
2023-05-15T15:42:46.527Z,75085.91
2023-05-15T15:44:20.065Z,75083.94
2023-05-15T15:45:55.418Z,75093.81
2023-05-15T15:47:32.687Z,75105.66
2023-05-15T15:49:06.921Z,75115.56
2023-05-15T15:50:40.597Z,75121.47
2023-05-15T15:52:14.180Z,75121.47
2023-05-15T15:53:47.682Z,75133.34
2023-05-15T15:55:21.154Z,75141.25
2023-05-15T15:56:55.080Z,75157.06
2023-05-15T15:58:28.272Z,75178.81
2023-05-15T16:00:01.700Z,75166.94
2023-05-15T16:01:35.109Z,75180.78
2023-05-15T16:03:08.573Z,75172.88
2023-05-15T16:04:42.179Z,75188.69
2023-05-15T16:06:15.535Z,75184.72
2023-05-15T16:07:49.234Z,75188.69
2023-05-15T16:09:22.858Z,75194.63
2023-05-15T16:10:56.414Z,75212.41
2023-05-15T16:12:29.726Z,75224.28
2023-05-15T16:14:03.053Z,75224.28
2023-05-15T16:15:36.726Z,75230.19
2023-05-15T16:17:10.259Z,75236.13
2023-05-15T16:18:44.322Z,75244.03
2023-05-15T16:20:17.871Z,75255.91
2023-05-15T16:21:51.779Z,75263.81
2023-05-15T16:23:25.234Z,75263.81
2023-05-15T16:24:59.018Z,75265.78
2023-05-15T16:26:32.754Z,75273.69
2023-05-15T16:28:06.954Z,75271.72
2023-05-15T16:29:41.755Z,75273.69
2023-05-15T16:31:16.446Z,75285.53
2023-05-15T16:32:50.822Z,75285.53
2023-05-15T16:34:24.304Z,75287.53
2023-05-15T16:35:58.171Z,75287.53
2023-05-15T16:37:32.706Z,75289.50
2023-05-15T16:39:06.163Z,75291.47
2023-05-15T16:40:39.826Z,75299.38
2023-05-15T16:42:13.655Z,75313.22
2023-05-15T16:43:47.047Z,75311.25
2023-05-15T16:45:20.261Z,75317.19
2023-05-15T16:46:54.077Z,75350.78
2023-05-15T16:48:28.646Z,75325.09
2023-05-15T16:50:02.085Z,75329.03
2023-05-15T16:51:35.978Z,75331.00
2023-05-15T16:53:09.432Z,75331.00
2023-05-15T16:54:43.091Z,75333.00
2023-05-15T16:56:16.660Z,75342.88
2023-05-15T16:57:49.920Z,75344.84
2023-05-15T16:59:23.136Z,75350.78
2023-05-15T17:00:56.620Z,75354.72
2023-05-15T17:02:30.305Z,75358.69
2023-05-15T17:04:05.432Z,75362.63
2023-05-15T17:05:40.308Z,75362.63
2023-05-15T17:07:13.621Z,75362.63
2023-05-15T17:08:47.330Z,75366.59
2023-05-15T17:10:23.981Z,75366.59
2023-05-15T17:11:57.639Z,75362.63
2023-05-15T17:13:31.040Z,75362.63
2023-05-15T17:15:05.702Z,75356.72
2023-05-15T17:16:39.036Z,75362.63
2023-05-15T17:18:12.678Z,75356.72
2023-05-15T17:19:46.181Z,75364.63
2023-05-15T17:21:19.977Z,75354.72
2023-05-15T17:22:53.068Z,75358.69
2023-05-15T17:24:30.742Z,75354.72
2023-05-15T17:26:11.819Z,75350.78
2023-05-15T17:27:45.361Z,75354.72
2023-05-15T17:29:18.656Z,75354.72
2023-05-15T17:30:52.062Z,75366.59
2023-05-15T17:32:25.488Z,75354.72
2023-05-15T17:34:00.612Z,75358.69
2023-05-15T17:35:34.088Z,75356.72
2023-05-15T17:37:08.240Z,75356.72
2023-05-15T17:38:41.301Z,75356.72
2023-05-15T17:40:14.662Z,75382.41
2023-05-15T17:41:50.458Z,75350.78
2023-05-15T17:43:23.773Z,75348.81
2023-05-15T17:44:57.456Z,75352.75
2023-05-15T17:46:31.039Z,75354.72
2023-05-15T17:48:05.345Z,75354.72
2023-05-15T17:49:39.738Z,75354.72
2023-05-15T17:51:13.151Z,75366.59
2023-05-15T17:52:46.884Z,75362.63
2023-05-15T17:54:21.195Z,75366.59
2023-05-15T17:55:54.764Z,75362.63
2023-05-15T17:57:28.485Z,75358.69
2023-05-15T17:59:01.874Z,75356.72
2023-05-15T18:00:35.809Z,75368.56
2023-05-15T18:02:09.008Z,75356.72
2023-05-15T18:03:43.161Z,75358.69
2023-05-15T18:05:17.542Z,75374.50
2023-05-15T18:06:51.629Z,75388.34
2023-05-15T18:08:25.140Z,75406.13
2023-05-15T18:09:58.642Z,75416.00
2023-05-15T18:11:32.357Z,75429.84
2023-05-15T18:13:06.021Z,75431.84
2023-05-15T18:14:44.748Z,75447.66
2023-05-15T18:16:22.040Z,75461.47
2023-05-15T18:18:03.575Z,75489.16
2023-05-15T18:20:06.703Z,75508.94
2023-05-15T18:21:41.134Z,75526.72
2023-05-15T18:23:15.925Z,75528.69
2023-05-15T18:25:00.017Z,75536.59
2023-05-15T18:26:40.293Z,75536.59
2023-05-15T18:28:38.133Z,75548.47
2023-05-15T18:30:13.048Z,75548.47
2023-05-15T18:31:50.211Z,75556.38
2023-05-15T18:33:25.261Z,75564.28
2023-05-15T18:35:06.466Z,75562.31
2023-05-15T18:36:41.004Z,75558.34
2023-05-15T18:38:14.412Z,75556.38
2023-05-15T18:40:02.641Z,75552.41
2023-05-15T18:41:39.947Z,75558.34